createdAt,value
2019-03-20T00:01:43.801Z,34.2
2019-03-20T00:06:49.352Z,21.3
2019-03-20T00:11:54.565Z,20.8
2019-03-20T00:16:59.742Z,21.9
2019-03-20T00:22:07.237Z,21.8
2019-03-20T00:27:12.479Z,20.8
2019-03-20T00:32:17.686Z,22.9
2019-03-20T00:37:23.003Z,19.4
2019-03-20T00:42:28.257Z,17.6
2019-03-20T00:47:33.798Z,18.2
2019-03-20T00:52:39.005Z,19.5
2019-03-20T00:57:44.095Z,20.3
2019-03-20T01:02:49.379Z,20.4
2019-03-20T01:07:54.608Z,19.3
2019-03-20T01:12:59.815Z,20
2019-03-20T01:18:05.032Z,18
2019-03-20T01:23:10.483Z,19.2
2019-03-20T01:28:15.916Z,19.1
2019-03-20T01:33:19.638Z,17.3
2019-03-20T01:38:24.954Z,19.2
2019-03-20T01:43:30.206Z,20.3
2019-03-20T01:48:35.448Z,17.3
2019-03-20T01:53:40.730Z,18.2
2019-03-20T01:58:46.031Z,18.6
2019-03-20T02:03:51.649Z,20.7
2019-03-20T02:08:56.719Z,24
2019-03-20T02:14:02.090Z,24
2019-03-20T02:19:07.505Z,18.5
2019-03-20T02:24:15.732Z,23.9
2019-03-20T02:29:20.724Z,21.6
2019-03-20T02:34:25.977Z,23.9
2019-03-20T02:39:31.068Z,29.2
2019-03-20T02:44:36.238Z,25.4
2019-03-20T02:49:41.589Z,21.9
2019-03-20T02:54:46.819Z,23.3
2019-03-20T02:59:52.148Z,19.2
2019-03-20T03:04:57.758Z,20.2
2019-03-20T03:10:03.797Z,23.4
2019-03-20T03:15:08.961Z,18.7
2019-03-20T03:20:14.290Z,19.5
2019-03-20T03:25:22.379Z,22.3
2019-03-20T03:30:26.292Z,18.8
2019-03-20T03:35:30.176Z,20.4
2019-03-20T03:40:35.260Z,21.1
2019-03-20T03:45:41.581Z,23.7
2019-03-20T03:50:48.329Z,27
2019-03-20T03:55:47.843Z,20.7
2019-03-20T04:00:52.990Z,18.9
2019-03-20T04:05:59.564Z,20.7
2019-03-20T04:11:07.835Z,22.6
2019-03-20T04:16:13.051Z,21
2019-03-20T04:21:16.960Z,21.2
2019-03-20T04:26:22.495Z,21
2019-03-20T04:31:27.550Z,20.1
2019-03-20T04:36:33.921Z,24.5
2019-03-20T04:41:41.903Z,22.7
2019-03-20T04:46:47.125Z,21.8
2019-03-20T04:51:52.265Z,20.4
2019-03-20T04:56:57.582Z,20.9
2019-03-20T05:02:02.840Z,37.3
2019-03-20T05:07:08.157Z,49.6
2019-03-20T05:12:13.817Z,26.2
2019-03-20T05:17:18.995Z,26
2019-03-20T05:22:24.226Z,28.6
2019-03-20T05:27:29.894Z,27.2
2019-03-20T05:32:35.239Z,27.3
2019-03-20T05:37:40.689Z,32.2
2019-03-20T05:42:45.772Z,49.9
2019-03-20T05:47:51.114Z,40.8
2019-03-20T05:52:56.195Z,39.8
2019-03-20T05:58:01.375Z,38.4
2019-03-20T06:03:06.499Z,29.9
2019-03-20T06:08:12.248Z,32.7
2019-03-20T06:13:17.464Z,45.5
2019-03-20T06:18:22.866Z,28.3
2019-03-20T06:23:28.253Z,31
2019-03-20T06:28:33.735Z,25.7
2019-03-20T06:33:38.966Z,29.3
2019-03-20T06:38:44.456Z,32.1
2019-03-20T06:43:49.722Z,39.2
2019-03-20T06:48:55.592Z,23.5
2019-03-20T06:54:01.086Z,26.3
2019-03-20T06:59:06.501Z,22.5
2019-03-20T07:04:11.699Z,25.4
2019-03-20T07:09:17.696Z,20.7
2019-03-20T07:14:23.122Z,21.6
2019-03-20T07:19:28.449Z,17
2019-03-20T07:24:33.832Z,16.4
2019-03-20T07:29:39.122Z,14.9
2019-03-20T07:34:42.634Z,15.8
2019-03-20T07:39:47.981Z,36
2019-03-20T07:44:53.525Z,18
2019-03-20T07:49:58.813Z,25.7
2019-03-20T07:55:03.846Z,14.6
2019-03-20T08:00:09.261Z,11.5
2019-03-20T08:05:14.613Z,17.5
2019-03-20T08:10:19.864Z,15.8
2019-03-20T08:15:24.849Z,19.9
2019-03-20T08:20:30.669Z,17.5
2019-03-20T08:25:35.355Z,14.4
2019-03-20T08:30:40.830Z,11.3
2019-03-20T08:35:44.423Z,12.3
2019-03-20T08:40:49.715Z,13.3
2019-03-20T08:45:54.750Z,11.8
2019-03-20T08:50:59.797Z,11.7
2019-03-20T08:56:05.114Z,10
2019-03-20T09:01:10.366Z,13
2019-03-20T09:06:15.273Z,12.1
2019-03-20T09:11:20.792Z,12
2019-03-20T09:16:24.236Z,12.1
2019-03-20T09:21:30.391Z,9.8
2019-03-20T09:26:35.581Z,14.4
2019-03-20T09:31:39.236Z,16.4
2019-03-20T09:36:44.387Z,9.2
2019-03-20T09:41:49.594Z,14.3
2019-03-20T09:46:53.425Z,10.8
2019-03-20T09:51:58.861Z,10.9
2019-03-20T09:57:04.362Z,10.4
2019-03-20T10:02:09.681Z,11.2
2019-03-20T10:07:14.704Z,8.8
2019-03-20T10:12:18.861Z,9.9
2019-03-20T10:17:24.469Z,21
2019-03-20T10:22:29.584Z,8
2019-03-20T10:27:34.998Z,12.6
2019-03-20T10:32:40.492Z,9.1
2019-03-20T10:37:45.678Z,15.3
2019-03-20T10:42:51.290Z,10.6
2019-03-20T10:47:56.943Z,22.1
2019-03-20T10:53:02.205Z,10.9
2019-03-20T10:58:07.593Z,11.8
2019-03-20T11:03:13.124Z,10.7
2019-03-20T11:08:18.357Z,10.7
2019-03-20T11:13:23.649Z,20.3
2019-03-20T11:18:28.811Z,10.3
2019-03-20T11:23:33.945Z,22.2
2019-03-20T11:28:39.103Z,12.3
2019-03-20T11:33:44.897Z,10.8
2019-03-20T11:38:49.956Z,13.2
2019-03-20T11:43:55.315Z,13
2019-03-20T11:49:00.469Z,10.7
2019-03-20T11:54:05.697Z,16.2
2019-03-20T11:59:11.094Z,13.8
2019-03-20T12:04:16.436Z,29
2019-03-20T12:09:21.982Z,11.3
2019-03-20T12:14:27.241Z,31.3
2019-03-20T12:19:32.253Z,14.5
2019-03-20T12:24:38.001Z,9.9
2019-03-20T12:29:43.328Z,15.6
2019-03-20T12:34:48.605Z,19.8
2019-03-20T12:39:53.768Z,14.4
2019-03-20T12:44:59.330Z,10.7
2019-03-20T12:50:04.580Z,13
2019-03-20T12:55:09.940Z,11
2019-03-20T13:00:15.145Z,20.6
2019-03-20T13:05:20.277Z,14.4
2019-03-20T13:10:25.626Z,13.1
2019-03-20T13:15:33.372Z,15.7
2019-03-20T13:20:37.424Z,13.2
2019-03-20T13:25:42.744Z,14.7
2019-03-20T13:30:48.945Z,16.9
2019-03-20T13:35:54.500Z,15.1
2019-03-20T13:40:59.532Z,15.7
2019-03-20T13:46:05.100Z,17.4
2019-03-20T13:51:09.287Z,18
2019-03-20T13:56:14.779Z,40.6
2019-03-20T14:01:19.714Z,17.3
2019-03-20T14:06:23.561Z,15.7
2019-03-20T14:11:28.760Z,17.7
2019-03-20T14:16:34.213Z,16.4
2019-03-20T14:21:39.395Z,25.5
2019-03-20T14:26:44.661Z,22.1
2019-03-20T14:31:50.024Z,18.3
2019-03-20T14:36:55.502Z,16.3
2019-03-20T14:41:59.256Z,20.4
2019-03-20T14:47:04.530Z,18
2019-03-20T14:52:08.149Z,15.2
2019-03-20T14:57:13.425Z,20.9
2019-03-20T15:02:18.781Z,16.2
2019-03-20T15:07:23.952Z,24.9
2019-03-20T15:12:28.961Z,17.7
2019-03-20T15:17:34.657Z,15.2
2019-03-20T15:22:39.629Z,17.9
2019-03-20T15:27:45.275Z,30.1
2019-03-20T15:32:49.136Z,15.6
2019-03-20T15:37:54.571Z,23.7
2019-03-20T15:43:01.816Z,24.9
2019-03-20T15:48:11.005Z,19.7
2019-03-20T15:53:19.992Z,17.5
2019-03-20T15:58:27.236Z,20.9
2019-03-20T16:03:27.400Z,23.6
2019-03-20T16:08:37.313Z,18.2
2019-03-20T16:13:40.493Z,18.4
2019-03-20T16:18:47.727Z,34.1
2019-03-20T16:23:53.597Z,24.4
2019-03-20T16:28:57.606Z,27.4
2019-03-20T16:34:02.993Z,37.8
2019-03-20T16:39:08.162Z,38.3
2019-03-20T16:44:13.240Z,40.2
2019-03-20T16:49:18.629Z,35
2019-03-20T16:54:23.909Z,40.6
2019-03-20T16:59:29.062Z,43
2019-03-20T17:04:29.445Z,31.4
2019-03-20T17:09:34.745Z,32.1
2019-03-20T17:14:41.761Z,32.2
2019-03-20T17:19:40.617Z,55.5
2019-03-20T17:24:48.455Z,53.6
2019-03-20T17:29:53.985Z,63.1
2019-03-20T17:34:59.198Z,88.9
2019-03-20T17:40:03.425Z,95.4
2019-03-20T17:45:08.932Z,68.2
2019-03-20T17:50:14.190Z,60.7
2019-03-20T17:55:19.416Z,57.8
2019-03-20T18:00:24.881Z,60.7
2019-03-20T18:10:35.437Z,35.7
2019-03-20T18:15:40.909Z,37.3
2019-03-20T18:20:46.500Z,35.4
2019-03-20T18:25:51.024Z,22.4
2019-03-20T18:30:57.301Z,37.8
2019-03-20T18:36:04.839Z,30.3
2019-03-20T18:41:10.370Z,41.8
2019-03-20T18:46:17.026Z,39.4
2019-03-20T18:51:22.237Z,71.6
2019-03-20T18:56:27.456Z,38.1
2019-03-20T19:01:33.096Z,32.4
2019-03-20T19:06:38.360Z,26.7
2019-03-20T19:11:43.742Z,41.8
2019-03-20T19:16:49.124Z,37.6
2019-03-20T19:21:55.188Z,38.7
2019-03-20T19:27:00.680Z,51
2019-03-20T19:32:06.270Z,50.2
2019-03-20T19:37:09.976Z,42.1
2019-03-20T19:42:20.079Z,41.8
2019-03-20T19:47:26.734Z,50.2
2019-03-20T19:52:32.085Z,42.1
2019-03-20T19:57:38.249Z,32.8
2019-03-20T20:02:43.626Z,42.1
2019-03-20T20:07:49.241Z,32.7
2019-03-20T20:12:54.953Z,28.8
2019-03-20T20:18:00.212Z,34.1
2019-03-20T20:23:05.628Z,30.2
2019-03-20T20:28:11.460Z,35.1
2019-03-20T20:33:17.518Z,37.3
2019-03-20T20:38:22.892Z,37.3
2019-03-20T20:43:27.993Z,35.2
2019-03-20T20:48:33.351Z,37
2019-03-20T20:58:48.297Z,29
2019-03-20T21:03:55.655Z,29.7
2019-03-20T21:09:01.105Z,31.7
2019-03-20T21:14:02.736Z,29
2019-03-20T21:19:07.869Z,28
2019-03-20T21:24:13.222Z,27.6
2019-03-20T21:29:18.531Z,29.3
2019-03-20T21:34:23.950Z,26.3
2019-03-20T21:39:29.209Z,27
2019-03-20T21:44:34.460Z,30.4
2019-03-20T21:49:39.584Z,32.3
2019-03-20T21:54:44.943Z,28.2
2019-03-20T21:59:50.141Z,34.9
2019-03-20T22:04:55.536Z,35.2
2019-03-20T22:10:00.805Z,35.1
2019-03-20T22:15:06.014Z,38.4
2019-03-20T22:20:11.464Z,34.8
2019-03-20T22:25:17.267Z,40.9
2019-03-20T22:30:22.683Z,37.3
2019-03-20T22:35:28.124Z,39.8
2019-03-20T22:40:33.270Z,37.4
2019-03-20T22:45:38.472Z,35.8
2019-03-20T22:50:43.554Z,36.5
2019-03-20T22:55:48.776Z,39
2019-03-20T23:00:53.898Z,37.4
2019-03-20T23:05:59.149Z,32.8
2019-03-20T23:11:04.184Z,33.5
2019-03-20T23:16:09.751Z,42.6
2019-03-20T23:21:15.071Z,41.9
2019-03-20T23:26:20.878Z,39.6
2019-03-20T23:31:26.158Z,40.5
2019-03-20T23:36:30.048Z,38.8
2019-03-20T23:41:35.111Z,36.1
2019-03-20T23:46:40.475Z,39.1
2019-03-20T23:51:45.713Z,51.4
2019-03-20T23:56:50.823Z,33.1
